コペンハーゲン国際空港の過去48時間の天気

コペンハーゲン国際空港 (Koebenhavn / Kastrup)

現在時刻: 10/24 11:24 CEST (10/24 09:24 UTC) 以下の時間は現地時間です。

過去48時間のMETAR気象情報
時間 風向 風速(m/s) 視程 気温(℃) 湿度(%) 気圧(hPa) 天気現象
24 10:50 西南西 6 10km以上 12 94 1006
24 10:20 西南西 6 10km以上 12 88 1006
24 09:50 西南西 6 10km以上 12 94 1006 弱い雨
24 09:20 西南西 5 4000m 12 94 1006 弱い雨
24 08:50 西南西 6 7000m 12 94 1006 弱い霧雨
24 08:20 南西 5 5000m 12 94 1006
24 07:50 南西 6 5000m 12 94 1006
24 07:20 南西 5 4500m 12 94 1005 もや
24 06:50 南西 6 4000m 12 94 1005 弱いしゅう雨
24 06:20 南西 6 4000m 12 94 1005 弱いしゅう雨
24 05:50 南南西 6 4000m 12 94 1005 弱いしゅう雨
24 05:20 南南西 6 4000m 12 94 1005 弱いしゅう雨
24 04:49 南南西 4 5000m 12 94 1005
24 03:50 南南西 5 8000m 12 94 1006
24 03:20 南南西 6 10km以上 11 94 1006
24 02:50 南南西 6 10km以上 11 94 1006 弱い雨
24 02:20 南南西 6 10km以上 11 94 1006 弱い雨
24 01:50 南南西 5 10km以上 11 94 1007 弱い雨
24 01:20 南南西 5 10km以上 11 87 1007
24 00:50 南南西 5 10km以上 10 94 1007
24 00:20 4 10km以上 11 87 1007
23 23:50 南南西 4 10km以上 10 94 1008
23 23:20 南南西 4 10km以上 10 94 1008
23 22:50 南南西 4 10km以上 9 93 1008
23 22:20 3 10km以上 9 93 1008
23 21:50 南南西 3 10km以上 8 100 1008
EKCH 240850Z AUTO 24011KT 9999 BKN015/// BKN052/// BKN066/// 12/11 Q1006 nosig
EKCH 240820Z AUTO 24012KT 9999 OVC051/// 12/10 Q1006 nosig
EKCH 240750Z AUTO 24011KT 9999 -RA SCT007/// OVC040/// 12/11 Q1006 RESHRA nosig
EKCH 240720Z 24009KT 4000 -RA FEW010 BKN013 FEW020CB 12/11 Q1006 BECMG 9999 NSW BKN020
EKCH 240650Z 24011KT 7000 -DZ FEW010 SCT031 BKN060 12/11 Q1006 TEMPO BKN012 SCT020CB
EKCH 240620Z 23010KT 5000 FEW012 SCT041 BKN068 12/11 Q1006 TEMPO BKN012 SCT020CB
EKCH 240550Z 23011KT 5000 SCT013 BKN041 12/11 Q1006 TEMPO 4500 BKN012 SCT020CB
EKCH 240520Z 22010KT 4500 BR BKN013 12/11 Q1005 BECMG 9000 BKN020 SCT020TCU
EKCH 240450Z 23012KT 4000 -SHRA BKN012 12/11 Q1005 TEMPO 5000 SHRA BKN008 BKN020CB
EKCH 240420Z 22012KT 4000 -SHRA BKN012 12/11 Q1005 TEMPO 5000 SHRA BKN008 BKN020CB
EKCH 240350Z 21012KT 4000 -SHRA BKN011 12/11 Q1005 TEMPO 5000 SHRA BKN008 BKN020CB
EKCH 240320Z 21011KT 4000 -SHRA BKN011 12/11 Q1005 TEMPO 3000 SHRA BKN008 BKN020CB
EKCH 240249Z 20008KT 5000 BKN011 12/11 Q1005 TEMPO 3000 SHRA BKN008 BKN020CB
EKCH 240150Z 20010KT 8000 FEW012 BKN016 12/11 Q1006 TEMPO 3000 SHRA BKN008 BKN020CB
EKCH 240120Z AUTO 20011KT 9999 BKN015/// BKN032/// OVC095/// 11/10 Q1006 TEMPO 3000 SHRA BKN008 BKN020CB
EKCH 240050Z AUTO 20011KT 9999 -RA BKN024/// OVC078/// 11/10 Q1006 RESHRA TEMPO 3000 SHRA BKN008 BKN020CB
EKCH 240020Z AUTO 21011KT 9999 -RA SCT030/// OVC058/// 11/10 Q1006 RERA TEMPO 3000 SHRA BKN008 BKN020CB
EKCH 232350Z AUTO 21010KT 9999 -RA OVC042/// 11/10 Q1007 TEMPO 3000 SHRA BKN008 BKN020CB
EKCH 232320Z AUTO 20009KT 9999 FEW039/// BKN080/// BKN170/// 11/09 Q1007 TEMPO 3000 SHRA BKN008 BKN020CB
EKCH 232250Z AUTO 20009KT 9999 BKN079/// 10/09 Q1007 NOSIG
EKCH 232220Z AUTO 19008KT 9999 OVC078/// 11/09 Q1007 NOSIG
EKCH 232150Z AUTO 20007KT 180V270 9999 OVC073/// 10/09 Q1008 NOSIG
EKCH 232120Z AUTO 21007KT 9999 BKN072/// 10/09 Q1008 NOSIG
EKCH 232050Z AUTO 21007KT 9999 NCD 09/08 Q1008 NOSIG
EKCH 232020Z AUTO 19006KT 9999 NCD 09/08 Q1008 NOSIG
EKCH 231950Z AUTO 20006KT 9999 NCD 08/08 Q1008 NOSIG